sensor_id;sensor_type;location;lat;lon;timestamp;pressure;altitude;pressure_sealevel;temperature;humidity
29941;BME280;16801;53.562;10.038;2022-09-17T00:01:01;100359.34;;;12.97;86.18
29941;BME280;16801;53.562;10.038;2022-09-17T00:04:24;100363.22;;;12.95;86.44
29941;BME280;16801;53.562;10.038;2022-09-17T00:07:45;100367.28;;;12.99;85.99
29941;BME280;16801;53.562;10.038;2022-09-17T00:11:06;100364.56;;;12.99;85.86
29941;BME280;16801;53.562;10.038;2022-09-17T00:14:29;100368.63;;;12.95;86.12
29941;BME280;16801;53.562;10.038;2022-09-17T00:17:53;100361.47;;;12.85;87.25
29941;BME280;16801;53.562;10.038;2022-09-17T00:21:15;100368.06;;;12.83;87.92
29941;BME280;16801;53.562;10.038;2022-09-17T00:24:36;100369.59;;;12.85;88.31
29941;BME280;16801;53.562;10.038;2022-09-17T00:27:57;100375.38;;;12.91;87.86
29941;BME280;16801;53.562;10.038;2022-09-17T00:31:20;100375.00;;;12.85;87.79
29941;BME280;16801;53.562;10.038;2022-09-17T00:34:42;100382.13;;;12.87;87.90
29941;BME280;16801;53.562;10.038;2022-09-17T00:38:03;100388.91;;;12.91;88.10
29941;BME280;16801;53.562;10.038;2022-09-17T00:41:26;100380.97;;;12.89;87.87
29941;BME280;16801;53.562;10.038;2022-09-17T00:44:49;100391.25;;;12.94;88.03
29941;BME280;16801;53.562;10.038;2022-09-17T00:48:11;100385.66;;;12.87;87.63
29941;BME280;16801;53.562;10.038;2022-09-17T00:51:35;100384.84;;;12.87;86.94
29941;BME280;16801;53.562;10.038;2022-09-17T00:55:02;100395.63;;;12.78;86.64
29941;BME280;16801;53.562;10.038;2022-09-17T00:58:25;100399.66;;;12.74;86.69
29941;BME280;16801;53.562;10.038;2022-09-17T01:01:47;100391.16;;;12.69;86.67
29941;BME280;16801;53.562;10.038;2022-09-17T01:05:10;100398.81;;;12.74;86.64
29941;BME280;16801;53.562;10.038;2022-09-17T01:08:37;100392.16;;;12.68;87.24
29941;BME280;16801;53.562;10.038;2022-09-17T01:12:17;100397.88;;;12.57;86.96
29941;BME280;16801;53.562;10.038;2022-09-17T01:15:46;100392.47;;;12.57;87.61
29941;BME280;16801;53.562;10.038;2022-09-17T01:19:27;100403.38;;;12.48;87.45
29941;BME280;16801;53.562;10.038;2022-09-17T01:22:59;100399.31;;;12.44;87.66
29941;BME280;16801;53.562;10.038;2022-09-17T01:26:43;100402.34;;;12.41;88.37
29941;BME280;16801;53.562;10.038;2022-09-17T01:30:30;100402.34;;;12.41;88.26
29941;BME280;16801;53.562;10.038;2022-09-17T01:33:57;100402.16;;;12.42;88.02
29941;BME280;16801;53.562;10.038;2022-09-17T01:37:29;100397.72;;;12.33;88.37
29941;BME280;16801;53.562;10.038;2022-09-17T01:40:56;100404.13;;;12.32;88.00
29941;BME280;16801;53.562;10.038;2022-09-17T01:44:27;100401.56;;;12.31;88.60
29941;BME280;16801;53.562;10.038;2022-09-17T01:48:11;100409.84;;;12.29;87.58
29941;BME280;16801;53.562;10.038;2022-09-17T01:51:36;100410.22;;;12.34;86.60
29941;BME280;16801;53.562;10.038;2022-09-17T01:55:01;100411.78;;;12.37;86.87
29941;BME280;16801;53.562;10.038;2022-09-17T01:58:26;100415.84;;;12.41;87.05
29941;BME280;16801;53.562;10.038;2022-09-17T02:01:51;100418.00;;;12.37;87.09
29941;BME280;16801;53.562;10.038;2022-09-17T02:05:18;100418.19;;;12.36;86.82
29941;BME280;16801;53.562;10.038;2022-09-17T02:08:45;100412.25;;;12.32;85.99
29941;BME280;16801;53.562;10.038;2022-09-17T02:12:11;100416.63;;;12.33;86.39
29941;BME280;16801;53.562;10.038;2022-09-17T02:15:37;100409.69;;;12.31;86.30
29941;BME280;16801;53.562;10.038;2022-09-17T02:19:05;100428.88;;;12.20;87.36
29941;BME280;16801;53.562;10.038;2022-09-17T02:22:34;100413.81;;;12.17;87.78
29941;BME280;16801;53.562;10.038;2022-09-17T02:25:59;100431.41;;;12.21;87.26
29941;BME280;16801;53.562;10.038;2022-09-17T02:29:32;100436.81;;;12.21;88.02
29941;BME280;16801;53.562;10.038;2022-09-17T02:32:54;100429.25;;;12.25;88.27
29941;BME280;16801;53.562;10.038;2022-09-17T02:36:15;100438.03;;;12.27;88.64
29941;BME280;16801;53.562;10.038;2022-09-17T02:39:37;100430.31;;;12.32;88.70
29941;BME280;16801;53.562;10.038;2022-09-17T02:43:07;100432.03;;;12.33;88.52
29941;BME280;16801;53.562;10.038;2022-09-17T02:46:46;100431.88;;;12.17;89.52
29941;BME280;16801;53.562;10.038;2022-09-17T02:50:25;100423.41;;;12.12;89.16
29941;BME280;16801;53.562;10.038;2022-09-17T02:53:56;100427.28;;;12.09;89.46
29941;BME280;16801;53.562;10.038;2022-09-17T02:57:26;100431.66;;;12.10;89.98
29941;BME280;16801;53.562;10.038;2022-09-17T03:00:50;100426.47;;;12.17;89.22
29941;BME280;16801;53.562;10.038;2022-09-17T03:04:14;100426.25;;;12.10;89.75
29941;BME280;16801;53.562;10.038;2022-09-17T03:07:36;100419.41;;;12.16;89.21
29941;BME280;16801;53.562;10.038;2022-09-17T03:10:58;100425.44;;;12.10;89.17
29941;BME280;16801;53.562;10.038;2022-09-17T03:14:21;100427.06;;;12.02;89.31
29941;BME280;16801;53.562;10.038;2022-09-17T03:17:42;100425.25;;;12.11;88.54
29941;BME280;16801;53.562;10.038;2022-09-17T03:21:03;100412.06;;;12.08;88.85
29941;BME280;16801;53.562;10.038;2022-09-17T03:24:24;100424.41;;;12.11;89.04
29941;BME280;16801;53.562;10.038;2022-09-17T03:27:48;100423.09;;;12.15;88.83
29941;BME280;16801;53.562;10.038;2022-09-17T03:31:10;100425.72;;;12.07;88.77
29941;BME280;16801;53.562;10.038;2022-09-17T03:34:31;100432.34;;;12.12;89.06
29941;BME280;16801;53.562;10.038;2022-09-17T03:37:52;100427.34;;;12.17;88.20
29941;BME280;16801;53.562;10.038;2022-09-17T03:41:13;100430.88;;;12.18;88.58
29941;BME280;16801;53.562;10.038;2022-09-17T03:44:34;100437.06;;;12.10;89.15
29941;BME280;16801;53.562;10.038;2022-09-17T03:47:56;100428.66;;;12.13;89.09
29941;BME280;16801;53.562;10.038;2022-09-17T03:51:18;100443.31;;;12.11;89.12
29941;BME280;16801;53.562;10.038;2022-09-17T03:54:38;100441.66;;;12.10;89.38
29941;BME280;16801;53.562;10.038;2022-09-17T03:57:59;100434.69;;;12.07;89.35
29941;BME280;16801;53.562;10.038;2022-09-17T04:01:20;100443.56;;;11.99;89.20
29941;BME280;16801;53.562;10.038;2022-09-17T04:04:42;100446.13;;;12.01;88.37
29941;BME280;16801;53.562;10.038;2022-09-17T04:08:04;100445.91;;;11.94;88.25
29941;BME280;16801;53.562;10.038;2022-09-17T04:11:25;100449.59;;;11.93;88.12
29941;BME280;16801;53.562;10.038;2022-09-17T04:14:49;100447.50;;;11.87;88.90
29941;BME280;16801;53.562;10.038;2022-09-17T04:18:10;100445.19;;;11.92;88.75
29941;BME280;16801;53.562;10.038;2022-09-17T04:21:32;100452.44;;;11.92;88.51
29941;BME280;16801;53.562;10.038;2022-09-17T04:24:53;100446.13;;;11.83;88.28
29941;BME280;16801;53.562;10.038;2022-09-17T04:28:14;100446.44;;;11.80;88.56
29941;BME280;16801;53.562;10.038;2022-09-17T04:31:35;100448.22;;;11.72;88.72
29941;BME280;16801;53.562;10.038;2022-09-17T04:34:56;100449.78;;;11.74;89.37
29941;BME280;16801;53.562;10.038;2022-09-17T04:38:18;100454.00;;;11.77;89.40
29941;BME280;16801;53.562;10.038;2022-09-17T04:41:41;100465.88;;;11.84;89.14
29941;BME280;16801;53.562;10.038;2022-09-17T04:45:02;100480.88;;;11.78;89.79
29941;BME280;16801;53.562;10.038;2022-09-17T04:48:23;100480.53;;;11.81;89.51
29941;BME280;16801;53.562;10.038;2022-09-17T04:51:44;100478.94;;;11.88;89.71
29941;BME280;16801;53.562;10.038;2022-09-17T04:55:07;100483.00;;;11.75;88.96
29941;BME280;16801;53.562;10.038;2022-09-17T04:58:29;100472.19;;;11.75;88.43
29941;BME280;16801;53.562;10.038;2022-09-17T05:01:51;100471.66;;;11.71;89.44
29941;BME280;16801;53.562;10.038;2022-09-17T05:05:13;100471.91;;;11.78;88.50
29941;BME280;16801;53.562;10.038;2022-09-17T05:08:35;100485.22;;;11.62;88.81
29941;BME280;16801;53.562;10.038;2022-09-17T05:11:57;100483.22;;;11.64;88.98
29941;BME280;16801;53.562;10.038;2022-09-17T05:15:18;100481.44;;;11.72;88.90
29941;BME280;16801;53.562;10.038;2022-09-17T05:18:39;100475.91;;;11.74;88.28
29941;BME280;16801;53.562;10.038;2022-09-17T05:22:00;100484.31;;;11.71;89.07
29941;BME280;16801;53.562;10.038;2022-09-17T05:25:22;100490.63;;;11.62;89.18
29941;BME280;16801;53.562;10.038;2022-09-17T05:28:44;100474.53;;;11.60;89.06
29941;BME280;16801;53.562;10.038;2022-09-17T05:32:05;100484.63;;;11.68;88.92
29941;BME280;16801;53.562;10.038;2022-09-17T05:35:27;100488.38;;;11.57;89.58
29941;BME280;16801;53.562;10.038;2022-09-17T05:38:48;100490.44;;;11.63;89.74
29941;BME280;16801;53.562;10.038;2022-09-17T05:42:09;100488.50;;;11.56;89.67
29941;BME280;16801;53.562;10.038;2022-09-17T05:45:31;100493.44;;;11.70;89.79
29941;BME280;16801;53.562;10.038;2022-09-17T05:48:54;100498.59;;;11.81;90.03
29941;BME280;16801;53.562;10.038;2022-09-17T05:52:15;100498.22;;;11.76;89.73
29941;BME280;16801;53.562;10.038;2022-09-17T05:55:36;100501.25;;;11.63;90.48
29941;BME280;16801;53.562;10.038;2022-09-17T05:58:58;100503.22;;;11.71;90.37
29941;BME280;16801;53.562;10.038;2022-09-17T06:02:20;100497.88;;;11.79;89.14
29941;BME280;16801;53.562;10.038;2022-09-17T06:05:41;100502.75;;;11.75;89.08
29941;BME280;16801;53.562;10.038;2022-09-17T06:09:03;100510.69;;;11.77;89.33
29941;BME280;16801;53.562;10.038;2022-09-17T06:12:24;100519.22;;;11.82;87.94
29941;BME280;16801;53.562;10.038;2022-09-17T06:15:48;100506.69;;;11.81;88.63
29941;BME280;16801;53.562;10.038;2022-09-17T06:19:11;100507.91;;;11.69;88.83
29941;BME280;16801;53.562;10.038;2022-09-17T06:22:35;100506.94;;;11.70;89.51
29941;BME280;16801;53.562;10.038;2022-09-17T06:25:57;100513.03;;;11.62;89.19
29941;BME280;16801;53.562;10.038;2022-09-17T06:29:18;100517.84;;;11.68;89.70
29941;BME280;16801;53.562;10.038;2022-09-17T06:32:39;100512.78;;;11.56;89.52
29941;BME280;16801;53.562;10.038;2022-09-17T06:36:03;100524.44;;;11.56;89.83
29941;BME280;16801;53.562;10.038;2022-09-17T06:39:24;100533.38;;;11.66;88.81
29941;BME280;16801;53.562;10.038;2022-09-17T06:42:45;100538.03;;;11.64;87.93
29941;BME280;16801;53.562;10.038;2022-09-17T06:46:06;100537.00;;;11.75;86.46
29941;BME280;16801;53.562;10.038;2022-09-17T06:49:27;100535.19;;;11.93;86.27
29941;BME280;16801;53.562;10.038;2022-09-17T06:52:52;100542.38;;;12.02;86.10
29941;BME280;16801;53.562;10.038;2022-09-17T06:56:16;100533.88;;;12.15;84.29
29941;BME280;16801;53.562;10.038;2022-09-17T06:59:37;100534.88;;;12.31;83.28
29941;BME280;16801;53.562;10.038;2022-09-17T07:02:58;100528.00;;;12.19;84.33
29941;BME280;16801;53.562;10.038;2022-09-17T07:06:20;100528.72;;;12.39;83.20
29941;BME280;16801;53.562;10.038;2022-09-17T07:09:42;100529.53;;;12.39;81.69
29941;BME280;16801;53.562;10.038;2022-09-17T07:13:03;100527.28;;;12.52;80.74
29941;BME280;16801;53.562;10.038;2022-09-17T07:16:24;100529.50;;;12.74;80.44
29941;BME280;16801;53.562;10.038;2022-09-17T07:19:46;100528.03;;;12.88;78.85
29941;BME280;16801;53.562;10.038;2022-09-17T07:23:07;100538.00;;;13.39;77.87
29941;BME280;16801;53.562;10.038;2022-09-17T07:26:29;100538.47;;;13.26;78.18
29941;BME280;16801;53.562;10.038;2022-09-17T07:29:50;100544.91;;;13.33;76.33
29941;BME280;16801;53.562;10.038;2022-09-17T07:33:11;100550.03;;;13.44;76.02
29941;BME280;16801;53.562;10.038;2022-09-17T07:36:31;100553.47;;;13.21;76.34
29941;BME280;16801;53.562;10.038;2022-09-17T07:39:52;100546.47;;;13.10;76.21
29941;BME280;16801;53.562;10.038;2022-09-17T07:43:14;100558.31;;;12.92;77.49
29941;BME280;16801;53.562;10.038;2022-09-17T07:46:35;100554.59;;;13.10;77.61
29941;BME280;16801;53.562;10.038;2022-09-17T07:49:56;100536.91;;;13.24;76.92
29941;BME280;16801;53.562;10.038;2022-09-17T07:53:17;100548.50;;;13.08;76.67
29941;BME280;16801;53.562;10.038;2022-09-17T07:56:38;100539.38;;;13.43;76.03
29941;BME280;16801;53.562;10.038;2022-09-17T08:00:01;100544.34;;;13.55;75.59
29941;BME280;16801;53.562;10.038;2022-09-17T08:03:31;100533.34;;;13.65;74.46
29941;BME280;16801;53.562;10.038;2022-09-17T08:06:52;100531.47;;;13.57;75.20
29941;BME280;16801;53.562;10.038;2022-09-17T08:10:13;100533.88;;;13.69;74.61
29941;BME280;16801;53.562;10.038;2022-09-17T08:13:34;100534.47;;;14.04;74.09
29941;BME280;16801;53.562;10.038;2022-09-17T08:16:56;100534.91;;;13.76;73.01
29941;BME280;16801;53.562;10.038;2022-09-17T08:20:18;100520.28;;;13.52;74.00
29941;BME280;16801;53.562;10.038;2022-09-17T08:23:40;100528.78;;;13.66;72.78
29941;BME280;16801;53.562;10.038;2022-09-17T08:27:01;100524.84;;;13.52;74.10
29941;BME280;16801;53.562;10.038;2022-09-17T08:30:23;100518.09;;;13.56;73.46
29941;BME280;16801;53.562;10.038;2022-09-17T08:33:45;100524.91;;;13.26;74.34
29941;BME280;16801;53.562;10.038;2022-09-17T08:37:06;100533.94;;;13.35;74.57
29941;BME280;16801;53.562;10.038;2022-09-17T08:40:27;100538.28;;;13.28;74.48
29941;BME280;16801;53.562;10.038;2022-09-17T08:43:53;100526.44;;;13.71;73.85
29941;BME280;16801;53.562;10.038;2022-09-17T08:47:26;100522.44;;;13.99;73.01
29941;BME280;16801;53.562;10.038;2022-09-17T08:50:51;100511.78;;;14.13;71.73
29941;BME280;16801;53.562;10.038;2022-09-17T08:54:16;100507.72;;;14.01;71.31
29941;BME280;16801;53.562;10.038;2022-09-17T08:57:43;100518.84;;;13.82;71.83
29941;BME280;16801;53.562;10.038;2022-09-17T09:01:23;100505.97;;;13.76;73.27
29941;BME280;16801;53.562;10.038;2022-09-17T09:05:09;100519.47;;;13.18;74.73
29941;BME280;16801;53.562;10.038;2022-09-17T09:08:38;100517.13;;;13.73;73.56
29941;BME280;16801;53.562;10.038;2022-09-17T09:12:05;100505.50;;;13.89;72.20
29941;BME280;16801;53.562;10.038;2022-09-17T09:15:36;100507.50;;;13.79;72.83
29941;BME280;16801;53.562;10.038;2022-09-17T09:19:04;100519.38;;;14.02;70.10
29941;BME280;16801;53.562;10.038;2022-09-17T09:22:42;100524.06;;;13.26;71.55
29941;BME280;16801;53.562;10.038;2022-09-17T09:26:12;100513.97;;;13.44;69.96
29941;BME280;16801;53.562;10.038;2022-09-17T09:29:39;100517.75;;;13.51;68.84
29941;BME280;16801;53.562;10.038;2022-09-17T09:33:08;100522.56;;;13.81;68.70
29941;BME280;16801;53.562;10.038;2022-09-17T09:36:33;100511.44;;;14.08;68.35
29941;BME280;16801;53.562;10.038;2022-09-17T09:39:55;100521.09;;;14.11;67.63
29941;BME280;16801;53.562;10.038;2022-09-17T09:43:34;100526.41;;;14.36;66.01
29941;BME280;16801;53.562;10.038;2022-09-17T09:47:08;100508.94;;;14.55;65.61
29941;BME280;16801;53.562;10.038;2022-09-17T09:50:42;100513.47;;;14.95;63.65
29941;BME280;16801;53.562;10.038;2022-09-17T09:54:23;100506.13;;;15.58;62.79
29941;BME280;16801;53.562;10.038;2022-09-17T09:57:47;100514.69;;;15.39;61.93
29941;BME280;16801;53.562;10.038;2022-09-17T10:01:13;100515.81;;;15.91;62.08
29941;BME280;16801;53.562;10.038;2022-09-17T10:04:34;100521.59;;;15.88;61.98
29941;BME280;16801;53.562;10.038;2022-09-17T10:07:55;100522.38;;;15.74;61.59
29941;BME280;16801;53.562;10.038;2022-09-17T10:11:20;100520.22;;;15.62;60.69
29941;BME280;16801;53.562;10.038;2022-09-17T10:14:42;100516.94;;;15.28;60.70
29941;BME280;16801;53.562;10.038;2022-09-17T10:18:15;100517.28;;;14.54;62.65
29941;BME280;16801;53.562;10.038;2022-09-17T10:21:38;100511.81;;;14.78;63.66
29941;BME280;16801;53.562;10.038;2022-09-17T10:25:00;100519.59;;;14.73;64.30
29941;BME280;16801;53.562;10.038;2022-09-17T10:28:28;100511.19;;;15.23;62.64
29941;BME280;16801;53.562;10.038;2022-09-17T10:31:51;100508.78;;;14.32;66.19
29941;BME280;16801;53.562;10.038;2022-09-17T10:35:32;100502.69;;;14.38;67.49
29941;BME280;16801;53.562;10.038;2022-09-17T10:38:53;100498.09;;;14.63;65.57
29941;BME280;16801;53.562;10.038;2022-09-17T10:42:15;100498.75;;;14.73;65.67
29941;BME280;16801;53.562;10.038;2022-09-17T10:45:39;100501.66;;;14.39;66.35
29941;BME280;16801;53.562;10.038;2022-09-17T10:49:09;100497.59;;;14.52;66.11
29941;BME280;16801;53.562;10.038;2022-09-17T10:52:33;100504.66;;;13.38;69.74
29941;BME280;16801;53.562;10.038;2022-09-17T10:56:03;100500.78;;;14.15;67.82
29941;BME280;16801;53.562;10.038;2022-09-17T10:59:56;100484.34;;;14.57;66.91
29941;BME280;16801;53.562;10.038;2022-09-17T11:07:28;100471.56;;;16.65;60.13
29941;BME280;16801;53.562;10.038;2022-09-17T11:11:08;100466.00;;;15.30;64.78
29941;BME280;16801;53.562;10.038;2022-09-17T11:14:44;100476.47;;;15.79;64.01
29941;BME280;16801;53.562;10.038;2022-09-17T11:18:28;100472.84;;;15.56;64.14
29941;BME280;16801;53.562;10.038;2022-09-17T11:21:56;100468.72;;;17.97;57.26
29941;BME280;16801;53.562;10.038;2022-09-17T11:25:38;100462.00;;;17.28;57.55
29941;BME280;16801;53.562;10.038;2022-09-17T11:29:16;100477.28;;;16.33;60.59
29941;BME280;16801;53.562;10.038;2022-09-17T11:36:53;100481.06;;;16.24;61.62
29941;BME280;16801;53.562;10.038;2022-09-17T11:40:21;100478.31;;;15.87;62.10
29941;BME280;16801;53.562;10.038;2022-09-17T11:43:48;100473.31;;;20.16;50.14
29941;BME280;16801;53.562;10.038;2022-09-17T11:47:15;100456.72;;;20.96;45.76
29941;BME280;16801;53.562;10.038;2022-09-17T11:50:41;100470.31;;;18.27;54.00
29941;BME280;16801;53.562;10.038;2022-09-17T11:54:07;100474.69;;;17.35;57.24
29941;BME280;16801;53.562;10.038;2022-09-17T11:57:37;100473.66;;;14.07;68.10
29941;BME280;16801;53.562;10.038;2022-09-17T12:01:04;100477.09;;;14.41;68.45
29941;BME280;16801;53.562;10.038;2022-09-17T12:04:41;100474.53;;;14.56;68.56
29941;BME280;16801;53.562;10.038;2022-09-17T12:08:10;100481.97;;;13.89;70.77
29941;BME280;16801;53.562;10.038;2022-09-17T12:11:39;100479.38;;;13.80;71.95
29941;BME280;16801;53.562;10.038;2022-09-17T12:15:05;100462.19;;;14.45;70.65
29941;BME280;16801;53.562;10.038;2022-09-17T12:18:45;100455.81;;;14.85;68.81
29941;BME280;16801;53.562;10.038;2022-09-17T12:22:12;100457.44;;;15.02;68.40
29941;BME280;16801;53.562;10.038;2022-09-17T12:25:42;100448.84;;;15.37;67.61
29941;BME280;16801;53.562;10.038;2022-09-17T12:29:22;100432.88;;;20.18;51.49
29941;BME280;16801;53.562;10.038;2022-09-17T12:32:56;100427.09;;;21.37;47.23
29941;BME280;16801;53.562;10.038;2022-09-17T12:36:32;100449.16;;;17.72;57.16
29941;BME280;16801;53.562;10.038;2022-09-17T12:40:19;100431.19;;;17.13;60.11
29941;BME280;16801;53.562;10.038;2022-09-17T12:44:03;100421.97;;;20.70;48.97
29941;BME280;16801;53.562;10.038;2022-09-17T12:47:51;100417.97;;;20.21;50.74
29941;BME280;16801;53.562;10.038;2022-09-17T12:51:27;100425.94;;;17.97;57.10
29941;BME280;16801;53.562;10.038;2022-09-17T12:55:10;100424.94;;;20.49;52.19
29941;BME280;16801;53.562;10.038;2022-09-17T12:58:49;100419.66;;;19.42;53.94
29941;BME280;16801;53.562;10.038;2022-09-17T13:02:17;100428.69;;;17.47;59.93
29941;BME280;16801;53.562;10.038;2022-09-17T13:05:59;100422.22;;;17.48;61.73
29941;BME280;16801;53.562;10.038;2022-09-17T13:09:36;100417.66;;;17.05;62.55
29941;BME280;16801;53.562;10.038;2022-09-17T13:13:18;100408.22;;;17.51;61.44
29941;BME280;16801;53.562;10.038;2022-09-17T13:16:48;100415.94;;;16.08;65.79
29941;BME280;16801;53.562;10.038;2022-09-17T13:20:15;100411.78;;;15.13;69.48
29941;BME280;16801;53.562;10.038;2022-09-17T13:23:41;100415.03;;;15.01;71.37
29941;BME280;16801;53.562;10.038;2022-09-17T13:27:04;100419.13;;;14.18;76.17
29941;BME280;16801;53.562;10.038;2022-09-17T13:30:55;100422.66;;;13.94;75.63
29941;BME280;16801;53.562;10.038;2022-09-17T13:34:29;100418.06;;;13.71;75.91
29941;BME280;16801;53.562;10.038;2022-09-17T13:37:54;100420.13;;;14.01;75.86
29941;BME280;16801;53.562;10.038;2022-09-17T13:41:17;100419.97;;;14.18;75.44
29941;BME280;16801;53.562;10.038;2022-09-17T13:44:41;100413.16;;;16.16;72.90
29941;BME280;16801;53.562;10.038;2022-09-17T13:48:07;100403.94;;;22.09;52.70
29941;BME280;16801;53.562;10.038;2022-09-17T13:51:52;100403.69;;;21.73;53.11
29941;BME280;16801;53.562;10.038;2022-09-17T13:55:29;100399.59;;;21.51;53.10
29941;BME280;16801;53.562;10.038;2022-09-17T13:58:51;100394.91;;;21.00;54.21
29941;BME280;16801;53.562;10.038;2022-09-17T14:02:27;100402.06;;;18.48;61.35
29941;BME280;16801;53.562;10.038;2022-09-17T14:05:48;100400.97;;;16.78;67.21
29941;BME280;16801;53.562;10.038;2022-09-17T14:09:33;100401.91;;;15.51;72.59
29941;BME280;16801;53.562;10.038;2022-09-17T14:16:54;100419.44;;;15.41;75.04
29941;BME280;16801;53.562;10.038;2022-09-17T14:20:17;100440.03;;;15.66;75.78
29941;BME280;16801;53.562;10.038;2022-09-17T14:23:43;100440.97;;;15.50;73.66
29941;BME280;16801;53.562;10.038;2022-09-17T14:27:14;100438.19;;;15.66;72.02
29941;BME280;16801;53.562;10.038;2022-09-17T14:30:37;100434.16;;;15.54;70.79
29941;BME280;16801;53.562;10.038;2022-09-17T14:34:01;100423.13;;;15.78;71.13
29941;BME280;16801;53.562;10.038;2022-09-17T14:37:23;100426.13;;;17.24;66.07
29941;BME280;16801;53.562;10.038;2022-09-17T14:40:46;100413.66;;;19.32;60.09
29941;BME280;16801;53.562;10.038;2022-09-17T14:44:14;100448.53;;;17.41;64.52
29941;BME280;16801;53.562;10.038;2022-09-17T14:47:37;100452.78;;;15.88;69.35
29941;BME280;16801;53.562;10.038;2022-09-17T14:51:27;100460.03;;;15.34;70.61
29941;BME280;16801;53.562;10.038;2022-09-17T14:55:07;100460.13;;;15.18;72.27
29941;BME280;16801;53.562;10.038;2022-09-17T14:58:31;100467.63;;;15.08;73.61
29941;BME280;16801;53.562;10.038;2022-09-17T15:01:55;100470.88;;;15.03;74.24
29941;BME280;16801;53.562;10.038;2022-09-17T15:05:26;100466.09;;;15.05;75.08
29941;BME280;16801;53.562;10.038;2022-09-17T15:08:48;100469.78;;;15.20;74.36
29941;BME280;16801;53.562;10.038;2022-09-17T15:12:14;100469.66;;;15.14;74.66
29941;BME280;16801;53.562;10.038;2022-09-17T15:15:38;100468.84;;;14.97;74.80
29941;BME280;16801;53.562;10.038;2022-09-17T15:19:01;100458.22;;;15.27;74.08
29941;BME280;16801;53.562;10.038;2022-09-17T15:22:26;100447.19;;;15.28;73.82
29941;BME280;16801;53.562;10.038;2022-09-17T15:25:50;100464.56;;;15.42;73.72
29941;BME280;16801;53.562;10.038;2022-09-17T15:29:13;100463.09;;;15.39;73.56
29941;BME280;16801;53.562;10.038;2022-09-17T15:32:34;100457.03;;;15.21;73.38
29941;BME280;16801;53.562;10.038;2022-09-17T15:36:02;100464.66;;;15.26;72.29
29941;BME280;16801;53.562;10.038;2022-09-17T15:39:28;100469.06;;;14.80;73.58
29941;BME280;16801;53.562;10.038;2022-09-17T15:42:51;100474.44;;;15.04;74.86
29941;BME280;16801;53.562;10.038;2022-09-17T15:46:22;100479.38;;;14.92;74.19
29941;BME280;16801;53.562;10.038;2022-09-17T15:50:05;100482.44;;;14.97;74.54
29941;BME280;16801;53.562;10.038;2022-09-17T15:53:29;100482.81;;;14.70;74.67
29941;BME280;16801;53.562;10.038;2022-09-17T15:56:55;100485.69;;;14.77;74.84
29941;BME280;16801;53.562;10.038;2022-09-17T16:00:17;100488.22;;;14.78;74.15
29941;BME280;16801;53.562;10.038;2022-09-17T16:04:07;100502.50;;;14.72;75.02
29941;BME280;16801;53.562;10.038;2022-09-17T16:07:29;100506.00;;;14.97;73.41
29941;BME280;16801;53.562;10.038;2022-09-17T16:10:51;100503.09;;;14.98;74.27
29941;BME280;16801;53.562;10.038;2022-09-17T16:14:12;100503.56;;;15.18;72.32
29941;BME280;16801;53.562;10.038;2022-09-17T16:17:41;100513.78;;;15.00;74.24
29941;BME280;16801;53.562;10.038;2022-09-17T16:21:03;100511.50;;;14.49;75.17
29941;BME280;16801;53.562;10.038;2022-09-17T16:24:23;100520.09;;;14.28;75.84
29941;BME280;16801;53.562;10.038;2022-09-17T16:27:48;100516.03;;;14.24;76.35
29941;BME280;16801;53.562;10.038;2022-09-17T16:31:12;100517.38;;;14.12;76.77
29941;BME280;16801;53.562;10.038;2022-09-17T16:34:33;100536.19;;;14.05;77.71
29941;BME280;16801;53.562;10.038;2022-09-17T16:37:55;100529.59;;;14.16;77.90
29941;BME280;16801;53.562;10.038;2022-09-17T16:41:16;100528.91;;;14.06;78.28
29941;BME280;16801;53.562;10.038;2022-09-17T16:44:38;100526.00;;;13.99;77.18
29941;BME280;16801;53.562;10.038;2022-09-17T16:47:59;100535.97;;;13.91;77.64
29941;BME280;16801;53.562;10.038;2022-09-17T16:51:21;100542.25;;;13.91;77.73
29941;BME280;16801;53.562;10.038;2022-09-17T16:54:42;100539.69;;;13.90;78.07
29941;BME280;16801;53.562;10.038;2022-09-17T16:58:02;100544.44;;;13.88;78.02
29941;BME280;16801;53.562;10.038;2022-09-17T17:01:25;100543.41;;;13.81;78.27
29941;BME280;16801;53.562;10.038;2022-09-17T17:04:46;100556.78;;;13.82;78.55
29941;BME280;16801;53.562;10.038;2022-09-17T17:08:07;100554.09;;;13.90;78.52
29941;BME280;16801;53.562;10.038;2022-09-17T17:11:29;100555.13;;;13.89;78.71
29941;BME280;16801;53.562;10.038;2022-09-17T17:14:50;100554.19;;;13.73;79.43
29941;BME280;16801;53.562;10.038;2022-09-17T17:18:13;100554.19;;;13.64;80.22
29941;BME280;16801;53.562;10.038;2022-09-17T17:21:34;100564.00;;;13.66;80.14
29941;BME280;16801;53.562;10.038;2022-09-17T17:24:55;100566.53;;;13.59;79.57
29941;BME280;16801;53.562;10.038;2022-09-17T17:28:16;100568.09;;;13.36;81.00
29941;BME280;16801;53.562;10.038;2022-09-17T17:31:37;100565.59;;;13.42;81.35
29941;BME280;16801;53.562;10.038;2022-09-17T17:34:59;100558.47;;;13.41;80.78
29941;BME280;16801;53.562;10.038;2022-09-17T17:38:20;100570.44;;;13.31;80.62
29941;BME280;16801;53.562;10.038;2022-09-17T17:41:42;100572.28;;;13.22;80.81
29941;BME280;16801;53.562;10.038;2022-09-17T17:45:04;100570.81;;;13.10;81.41
29941;BME280;16801;53.562;10.038;2022-09-17T17:48:25;100579.03;;;13.18;81.13
29941;BME280;16801;53.562;10.038;2022-09-17T17:51:49;100578.50;;;13.23;80.49
29941;BME280;16801;53.562;10.038;2022-09-17T17:55:11;100581.09;;;13.24;80.38